Dauntless Aviation
Airports Asia Iran
OIBP
PGU

Persian Gulf International Airport

Asalouyeh, IRAN

Airport Info
Suggest Updated Information for this Airport

Location

Latitude / Longitude: 27°22'46"N / 52°44'15"E
  27°22.776'N / 52°44.262'E
  27.3796 / 52.7377

Runway Information

Runway 13 /31

Dimensions: 13117 x 148 ft.
Surface: U
 
Runway 13
Runway 31
Latitude: 27.390889 27.368289
Longitude: 52.721917 52.753414
Elevation: 18 ft. 18 ft.
Runway true heading: 128.9 308.9
 
Satellite photo at:
Airport distance calculator
From:
Weather Reports

METAR

OIBP

OIBP 210830Z 20006KT 7000 SCT020 34/25 Q1011 A2988
OISR
24.7nm E
OISR 210800Z 00000KT 8000 NSC 33/15 Q1015 A3000
OIBJ
33.4nm NW
OIBJ 210800Z 23008KT CAVOK 30/19 Q1018

TAF

Safelog

 

Dauntless Aviation

© 2007-2019 Dauntless Aviation, all rights reserved
Information provided via PilotNav comes from a variety of official and unofficial data sources. As errors are possible, do not use PilotNav for primary flight planning purposes. Verify any information that you receive via PilotNav with current and canonical charts and other official documents. The material in this database is subject to database copyrights held by Dauntless Aviation and may not be copied without the express permission of Dauntless Aviation - licenses for use of part of all of this data are available for purchase; enquire via the Dauntless Aviation helpdesk. A number of mechanisms and markers exist in the database to protect against and identify infringement / copyright. Automated queries against this website are stictly prohibited, and all activity is logged and analyzed.